Time;durP1;ratioP1;P1;durP2;ratioP2;P2;SDS_P1;SDS_P2;PMS_P1;PMS_P2;Temp;Humidity;BMP_temperature;BMP_pressure;BME280_temperature;BME280_humidity;BME280_pressure;Samples;Min_cycle;Max_cycle;Signal;HPM_P1;HPM_P2
2023/03/24 00:00:14;;;;;;;11.32;4.50;;;11.40;99.90;;;;;;4993582;28;20061;-74
2023/03/24 00:02:42;;;;;;;10.95;4.32;;;11.30;99.90;;;;;;4958699;28;20456;-74
2023/03/24 00:05:13;;;;;;;7.72;4.03;;;11.30;99.90;;;;;;4974254;28;20050;-74
2023/03/24 00:07:40;;;;;;;9.38;4.20;;;11.40;99.90;;;;;;4973669;28;20074;-74
2023/03/24 00:10:08;;;;;;;12.55;4.80;;;11.30;99.90;;;;;;4973434;28;20417;-74
2023/03/24 00:12:37;;;;;;;12.82;5.47;;;11.30;99.90;;;;;;4956130;28;20051;-73
2023/03/24 00:15:12;;;;;;;11.45;4.82;;;11.20;99.90;;;;;;4974101;28;20073;-74
2023/03/24 00:17:41;;;;;;;8.93;4.93;;;11.20;99.90;;;;;;4955848;28;20050;-75
2023/03/24 00:20:14;;;;;;;10.25;4.82;;;11.30;99.90;;;;;;4956518;28;20047;-75
2023/03/24 00:22:42;;;;;;;10.50;4.07;;;11.30;99.90;;;;;;4973671;28;20122;-75
2023/03/24 00:25:09;;;;;;;12.20;4.40;;;11.30;99.90;;;;;;4973047;28;20096;-75
2023/03/24 00:27:35;;;;;;;12.63;5.10;;;11.30;99.90;;;;;;4956298;28;20039;-74
2023/03/24 00:30:07;;;;;;;10.20;4.78;;;11.30;99.90;;;;;;4956555;28;20106;-74
2023/03/24 00:32:35;;;;;;;7.13;3.92;;;11.30;99.90;;;;;;4955612;28;20157;-74
2023/03/24 00:35:02;;;;;;;9.68;4.53;;;11.30;99.90;;;;;;4956673;28;20089;-75
2023/03/24 00:37:28;;;;;;;10.45;5.10;;;11.30;99.90;;;;;;4955569;28;20446;-75
2023/03/24 00:39:54;;;;;;;8.70;4.57;;;11.20;99.90;;;;;;4956453;28;20101;-75
2023/03/24 00:42:19;;;;;;;;;;;11.20;99.90;;;;;;4956705;28;20039;-75
2023/03/24 00:44:46;;;;;;;9.77;4.10;;;11.20;99.90;;;;;;4973088;28;19926;-74
2023/03/24 00:47:12;;;;;;;8.77;4.72;;;11.30;99.90;;;;;;4974056;28;20483;-75
2023/03/24 00:49:43;;;;;;;9.75;5.10;;;11.10;99.90;;;;;;4973501;28;20065;-75
2023/03/24 00:52:19;;;;;;;8.57;4.55;;;11.10;99.90;;;;;;4955751;28;20078;-75
2023/03/24 00:54:46;;;;;;;9.45;4.32;;;11.10;99.90;;;;;;4956716;28;20050;-74
2023/03/24 00:57:21;;;;;;;8.35;3.35;;;11.10;99.90;;;;;;4973776;28;20046;-74
2023/03/24 00:59:51;;;;;;;11.90;5.18;;;11.20;99.90;;;;;;4955526;28;20097;-74
2023/03/24 01:02:21;;;;;;;10.35;4.32;;;11.10;99.90;;;;;;4956422;28;20057;-74
2023/03/24 01:04:53;;;;;;;12.05;4.75;;;11.10;99.90;;;;;;4973718;28;20431;-74
2023/03/24 01:07:23;;;;;;;8.43;4.90;;;11.10;99.90;;;;;;4972889;28;20039;-75
2023/03/24 01:09:58;;;;;;;8.90;4.55;;;11.20;99.90;;;;;;4956031;28;20046;-74
2023/03/24 01:12:26;;;;;;;7.30;3.20;;;11.20;99.90;;;;;;4972470;28;20465;-73
2023/03/24 01:14:52;;;;;;;8.60;4.35;;;11.20;99.90;;;;;;4974177;28;20035;-75
2023/03/24 01:17:21;;;;;;;10.88;4.93;;;11.20;99.90;;;;;;4959966;28;20494;-75
2023/03/24 01:19:47;;;;;;;6.60;3.97;;;11.10;99.90;;;;;;4959444;28;20051;-74
2023/03/24 01:22:14;;;;;;;9.57;4.78;;;11.10;99.90;;;;;;4978922;28;20158;-75
2023/03/24 01:24:39;;;;;;;11.02;4.88;;;11.10;99.90;;;;;;4966791;28;20126;-74
2023/03/24 01:27:05;;;;;;;10.00;4.80;;;11.10;99.90;;;;;;4966477;28;20063;-74
2023/03/24 01:29:31;;;;;;;11.20;4.90;;;11.00;99.90;;;;;;4965588;28;20466;-75
2023/03/24 01:31:57;;;;;;;7.68;4.20;;;11.10;99.90;;;;;;4976822;28;20461;-75
2023/03/24 01:34:23;;;;;;;9.75;4.18;;;11.30;99.90;;;;;;4958912;28;20479;-76
2023/03/24 01:36:49;;;;;;;10.90;4.88;;;11.20;99.90;;;;;;4976251;28;20058;-75
2023/03/24 01:39:15;;;;;;;7.97;4.72;;;11.30;99.90;;;;;;4977322;28;20123;-76
2023/03/24 01:41:40;;;;;;;11.88;4.53;;;11.30;99.90;;;;;;4976042;28;20471;-76
2023/03/24 01:44:42;;;;;;;8.52;4.75;;;11.40;99.90;;;;;;4959961;28;20065;-76
2023/03/24 01:47:08;;;;;;;7.00;4.18;;;11.30;99.90;;;;;;4898589;29;20412;-75
2023/03/24 01:49:58;;;;;;;7.28;4.70;;;11.30;99.90;;;;;;4942753;28;20134;-76
2023/03/24 01:52:31;;;;;;;12.55;4.82;;;11.30;99.90;;;;;;4976115;28;20372;-76
2023/03/24 01:55:17;;;;;;;8.60;4.30;;;11.30;99.90;;;;;;4976305;28;20082;-76
2023/03/24 01:57:47;;;;;;;8.63;4.70;;;11.30;99.90;;;;;;4959517;28;20049;-75
2023/03/24 02:00:17;;;;;;;8.20;4.60;;;11.30;99.90;;;;;;4976748;28;20485;-76
2023/03/24 02:02:53;;;;;;;8.43;5.10;;;11.30;99.90;;;;;;4975408;28;20066;-76
2023/03/24 02:05:22;;;;;;;7.63;4.80;;;11.20;99.90;;;;;;4959336;28;20050;-76
2023/03/24 02:08:01;;;;;;;10.10;5.15;;;11.30;99.90;;;;;;4959292;28;20055;-76
2023/03/24 02:10:29;;;;;;;10.82;4.45;;;11.20;99.90;;;;;;4958170;28;20138;-76
2023/03/24 02:12:55;;;;;;;6.28;4.10;;;11.30;99.90;;;;;;4959314;28;20050;-75
2023/03/24 02:15:22;;;;;;;7.80;4.70;;;11.30;99.90;;;;;;4959337;28;20129;-74
2023/03/24 02:17:58;;;;;;;7.35;4.32;;;11.20;99.90;;;;;;4976490;28;20113;-75
2023/03/24 02:20:32;;;;;;;7.20;4.70;;;11.30;99.90;;;;;;4980319;28;20042;-75
2023/03/24 02:23:38;;;;;;;9.63;4.97;;;11.30;99.90;;;;;;4962345;28;20055;-75
2023/03/24 02:26:25;;;;;;;7.72;4.72;;;11.20;99.90;;;;;;4964363;28;20053;-75
2023/03/24 02:29:15;;;;;;;8.13;4.63;;;11.30;99.90;;;;;;4980672;28;20482;-75
2023/03/24 02:32:04;;;;;;;9.07;5.07;;;11.20;99.90;;;;;;4943078;29;20126;-75
2023/03/24 02:34:59;;;;;;;9.32;5.63;;;11.20;99.90;;;;;;4930620;29;20055;-75
2023/03/24 02:37:41;;;;;;;6.70;3.40;;;11.10;99.90;;;;;;4939477;29;20134;-75
2023/03/24 02:40:25;;;;;;;8.05;4.53;;;11.10;99.90;;;;;;4964858;28;20054;-75
2023/03/24 02:43:09;;;;;;;6.00;3.88;;;11.10;99.90;;;;;;4975898;28;20122;-76
2023/03/24 02:45:40;;;;;;;11.60;4.10;;;10.90;99.90;;;;;;4973541;28;20054;-75
2023/03/24 02:48:20;;;;;;;10.93;3.95;;;10.80;99.90;;;;;;4958921;28;20052;-76
2023/03/24 02:50:52;;;;;;;8.27;3.75;;;10.80;99.90;;;;;;4958771;28;20046;-75
2023/03/24 02:53:24;;;;;;;8.18;3.75;;;10.70;99.90;;;;;;4975619;28;20097;-74
2023/03/24 02:56:04;;;;;;;6.60;2.78;;;10.60;99.90;;;;;;4958158;28;20050;-74
2023/03/24 02:58:52;;;;;;;8.07;2.60;;;10.70;99.90;;;;;;4974457;28;20046;-74
2023/03/24 03:01:30;;;;;;;11.93;2.70;;;10.70;99.90;;;;;;4957661;28;20050;-74
2023/03/24 03:04:10;;;;;;;8.13;2.15;;;10.70;99.90;;;;;;4957841;28;20078;-74
2023/03/24 03:06:39;;;;;;;5.35;2.03;;;10.50;99.90;;;;;;4957221;28;20398;-74
2023/03/24 03:09:09;;;;;;;8.95;2.60;;;10.90;99.90;;;;;;4958324;28;20043;-75
2023/03/24 03:11:37;;;;;;;7.57;2.17;;;10.50;99.90;;;;;;4957565;28;20058;-74
2023/03/24 03:14:08;;;;;;;11.98;2.53;;;10.40;99.90;;;;;;4957426;28;20129;-74
2023/03/24 03:16:44;;;;;;;8.73;2.35;;;10.50;99.90;;;;;;4957714;28;20039;-74
2023/03/24 03:19:38;;;;;;;7.22;2.22;;;10.30;99.90;;;;;;4974436;28;20047;-75
2023/03/24 03:22:09;;;;;;;8.00;2.55;;;10.20;99.90;;;;;;4954689;28;20063;-74
2023/03/24 03:24:38;;;;;;;6.53;2.22;;;10.20;99.90;;;;;;4957576;28;20094;-74
2023/03/24 03:27:13;;;;;;;12.25;2.42;;;10.10;99.90;;;;;;4974597;28;20046;-74
2023/03/24 03:29:44;;;;;;;9.10;2.63;;;10.00;99.90;;;;;;4954622;28;20043;-74
2023/03/24 03:32:23;;;;;;;13.20;2.40;;;10.00;99.90;;;;;;4955899;29;20054;-74
2023/03/24 03:34:54;;;;;;;13.45;2.45;;;10.10;99.90;;;;;;4955232;29;20130;-75
2023/03/24 03:37:54;;;;;;;10.45;2.22;;;10.00;99.90;;;;;;4937892;28;20051;-74
2023/03/24 03:40:26;;;;;;;7.60;2.30;;;10.10;99.90;;;;;;4954099;29;20043;-75
2023/03/24 03:42:53;;;;;;;9.18;1.98;;;10.00;99.90;;;;;;4955550;29;20058;-74
2023/03/24 03:45:18;;;;;;;10.77;2.22;;;9.90;99.90;;;;;;4955449;29;20046;-74
2023/03/24 03:47:44;;;;;;;;;;;9.90;99.90;;;;;;4938041;29;20039;-74
2023/03/24 03:50:10;;;;;;;11.23;2.20;;;9.80;99.90;;;;;;4956104;29;19978;-74
2023/03/24 03:52:37;;;;;;;;;;;9.70;99.90;;;;;;4957440;29;20039;-73
2023/03/24 03:55:05;;;;;;;10.57;2.95;;;9.70;99.90;;;;;;4942986;29;19923;-73
2023/03/24 03:57:31;;;;;;;10.52;2.15;;;9.60;99.90;;;;;;4943702;29;20055;-73
2023/03/24 04:00:06;;;;;;;11.60;2.28;;;9.50;99.90;;;;;;4942531;29;20055;-74
2023/03/24 04:02:51;;;;;;;12.20;2.65;;;9.50;99.90;;;;;;4954496;29;20044;-74
2023/03/24 04:05:31;;;;;;;9.43;3.28;;;9.40;99.90;;;;;;4937647;29;20050;-74
2023/03/24 04:08:24;;;;;;;12.68;2.60;;;9.20;99.90;;;;;;4937856;29;20066;-74
2023/03/24 04:11:01;;;;;;;12.05;2.90;;;9.20;99.90;;;;;;4955233;29;20043;-74
2023/03/24 04:13:46;;;;;;;8.75;2.00;;;9.10;99.90;;;;;;4937899;29;20075;-74
2023/03/24 04:16:50;;;;;;;14.05;3.05;;;9.00;99.90;;;;;;4936927;29;20051;-74
2023/03/24 04:19:25;;;;;;;13.80;2.25;;;9.00;99.90;;;;;;4926115;29;20083;-73
2023/03/24 04:22:09;;;;;;;12.73;2.38;;;8.90;99.90;;;;;;4935358;29;20055;-74
2023/03/24 04:24:50;;;;;;;12.07;2.30;;;8.90;99.90;;;;;;4934597;29;20071;-74
2023/03/24 04:27:26;;;;;;;12.27;2.40;;;8.90;99.90;;;;;;4918890;29;20048;-74
2023/03/24 04:29:57;;;;;;;13.20;2.45;;;8.80;99.90;;;;;;4935291;28;20051;-73
2023/03/24 04:32:34;;;;;;;12.30;2.85;;;8.80;99.90;;;;;;4956497;28;20055;-74
2023/03/24 04:35:25;;;;;;;11.32;2.60;;;8.80;99.90;;;;;;4956380;28;20045;-75
2023/03/24 04:37:53;;;;;;;8.82;2.75;;;8.90;99.90;;;;;;4955597;28;20479;-74
2023/03/24 04:40:23;;;;;;;12.52;2.67;;;8.80;99.90;;;;;;4973832;28;20043;-74
2023/03/24 04:42:52;;;;;;;16.35;2.65;;;8.90;99.90;;;;;;4973824;28;20380;-74
2023/03/24 04:45:19;;;;;;;12.93;2.63;;;8.90;99.90;;;;;;4973155;28;20081;-74
2023/03/24 04:47:52;;;;;;;16.65;3.00;;;8.90;99.90;;;;;;4956721;28;20043;-74
2023/03/24 04:50:31;;;;;;;14.80;3.28;;;8.80;99.90;;;;;;4974219;28;20066;-74
2023/03/24 04:52:57;;;;;;;12.77;3.03;;;8.80;99.90;;;;;;4978248;28;20062;-74
2023/03/24 04:55:51;;;;;;;13.88;3.00;;;8.80;99.90;;;;;;4977356;28;20070;-74
2023/03/24 04:58:19;;;;;;;11.77;2.47;;;8.80;99.90;;;;;;4977110;28;20054;-74
2023/03/24 05:00:45;;;;;;;11.88;2.90;;;8.70;99.90;;;;;;4961718;28;20043;-74
2023/03/24 05:03:15;;;;;;;17.30;3.05;;;8.70;99.90;;;;;;4960386;28;20050;-73
2023/03/24 05:05:47;;;;;;;15.02;2.90;;;8.70;99.90;;;;;;4959180;28;20055;-74
2023/03/24 05:08:13;;;;;;;12.75;2.40;;;8.90;99.90;;;;;;4977753;28;20045;-74
2023/03/24 05:10:42;;;;;;;13.23;2.55;;;8.70;99.90;;;;;;4976808;28;20055;-74
2023/03/24 05:13:08;;;;;;;12.88;2.47;;;8.60;99.90;;;;;;4977108;28;20086;-75
2023/03/24 05:15:34;;;;;;;;;;;9.20;99.90;;;;;;4960270;28;20051;-75
2023/03/24 05:18:00;;;;;;;12.90;3.05;;;8.90;99.90;;;;;;4960287;28;20013;-74
2023/03/24 05:20:26;;;;;;;11.32;2.38;;;8.60;99.90;;;;;;4976278;28;20102;-74
2023/03/24 05:22:52;;;;;;;12.70;2.20;;;8.60;99.90;;;;;;4977532;28;20043;-74
2023/03/24 05:25:19;;;;;;;15.70;2.80;;;8.60;99.90;;;;;;4976872;28;20050;-74
2023/03/24 05:27:47;;;;;;;14.52;2.45;;;8.90;99.90;;;;;;4966185;28;20086;-74
2023/03/24 05:30:13;;;;;;;;;;;8.50;99.90;;;;;;4997810;28;20058;-74
2023/03/24 05:32:39;;;;;;;12.15;3.10;;;8.50;99.90;;;;;;4996549;28;19972;-74
2023/03/24 05:35:05;;;;;;;;;;;8.50;99.90;;;;;;4976780;28;20425;-74
2023/03/24 05:37:31;;;;;;;15.43;2.80;;;8.50;99.90;;;;;;4980268;28;20051;-73
2023/03/24 05:39:56;;;;;;;;;;;9.20;99.90;;;;;;4980363;28;20871;-74
2023/03/24 05:42:23;;;;;;;10.15;3.22;;;8.50;99.90;;;;;;4976593;28;19922;-75
2023/03/24 05:44:49;;;;;;;15.85;2.47;;;8.60;99.90;;;;;;4980418;28;20113;-75
2023/03/24 05:47:15;;;;;;;;;;;8.70;99.90;;;;;;4966527;28;20182;-74
2023/03/24 05:49:44;;;;;;;10.70;2.63;;;8.70;99.90;;;;;;4966654;28;19922;-74
2023/03/24 05:52:11;;;;;;;12.23;2.72;;;8.80;99.90;;;;;;4976592;28;20043;-74
2023/03/24 05:54:38;;;;;;;10.23;2.65;;;8.80;99.90;;;;;;4957774;28;20057;-74
2023/03/24 05:57:06;;;;;;;9.60;2.30;;;8.80;99.90;;;;;;4976572;28;20049;-73
2023/03/24 05:59:33;;;;;;;15.60;2.90;;;9.30;99.90;;;;;;4962147;28;20129;-74
2023/03/24 06:01:59;;;;;;;10.80;2.28;;;8.80;99.90;;;;;;4977470;28;20145;-74
2023/03/24 06:04:28;;;;;;;;;;;9.50;99.90;;;;;;4967075;28;20519;-73
2023/03/24 06:06:54;;;;;;;8.95;1.80;;;8.80;99.90;;;;;;4958370;28;19925;-74
2023/03/24 06:09:21;;;;;;;10.50;2.53;;;8.90;99.90;;;;;;4958124;28;20554;-76
2023/03/24 06:11:49;;;;;;;12.18;2.35;;;8.80;99.90;;;;;;4976010;28;20064;-77
2023/03/24 06:14:15;;;;;;;11.98;2.70;;;8.80;99.90;;;;;;4959451;28;20051;-77
2023/03/24 06:16:41;;;;;;;;;;;9.80;99.90;;;;;;4975805;28;20445;-78
2023/03/24 06:19:07;;;;;;;10.85;2.70;;;9.10;99.90;;;;;;4976184;28;19922;-75
2023/03/24 06:21:33;;;;;;;11.60;3.60;;;9.00;99.90;;;;;;4976146;28;20098;-77
2023/03/24 06:23:59;;;;;;;21.33;3.53;;;8.90;99.90;;;;;;4975359;28;20129;-76
2023/03/24 06:26:25;;;;;;;;;;;9.70;99.90;;;;;;4975204;28;20126;-76
2023/03/24 06:28:51;;;;;;;17.15;3.15;;;9.40;99.90;;;;;;4979595;28;19929;-77
2023/03/24 06:31:23;;;;;;;10.65;2.60;;;9.80;99.90;;;;;;4988646;28;20410;-77
2023/03/24 06:33:51;;;;;;;8.95;2.17;;;9.30;99.90;;;;;;4987354;28;20047;-78
2023/03/24 06:36:17;;;;;;;16.15;3.97;;;9.00;99.90;;;;;;4984159;28;20445;-77
2023/03/24 06:38:46;;;;;;;;;;;9.40;99.90;;;;;;4985124;28;20047;-76
2023/03/24 06:41:12;;;;;;;12.77;2.90;;;9.00;99.90;;;;;;4988406;28;20318;-74
2023/03/24 06:43:37;;;;;;;;;;;9.00;99.90;;;;;;4982998;28;20050;-77
2023/03/24 06:46:03;;;;;;;19.33;3.72;;;9.00;99.90;;;;;;4967471;28;20009;-76
2023/03/24 06:48:29;;;;;;;;;;;9.00;99.90;;;;;;4983365;28;20114;-75
2023/03/24 06:50:55;;;;;;;19.42;2.90;;;9.20;99.90;;;;;;4981527;28;19929;-76
2023/03/24 06:53:21;;;;;;;11.55;3.30;;;10.00;99.90;;;;;;4980519;28;20034;-73
2023/03/24 06:55:48;;;;;;;15.57;3.35;;;9.10;99.90;;;;;;4984974;28;20053;-79
2023/03/24 06:58:16;;;;;;;10.82;2.88;;;9.20;99.90;;;;;;4980448;28;20069;-82
2023/03/24 07:00:42;;;;;;;12.65;2.42;;;9.20;99.90;;;;;;4952912;28;20149;-83
2023/03/24 07:03:08;;;;;;;16.83;3.47;;;9.30;99.90;;;;;;4958832;28;20039;-76
2023/03/24 07:05:37;;;;;;;;;;;9.80;99.90;;;;;;4970291;28;20046;-80
2023/03/24 07:08:02;;;;;;;16.58;2.95;;;9.50;99.90;;;;;;4960414;28;19936;-82
2023/03/24 07:10:28;;;;;;;;;;;9.50;99.90;;;;;;4957513;28;20481;-78
2023/03/24 07:12:54;;;;;;;17.33;3.15;;;9.50;99.90;;;;;;4963230;28;19922;-80
2023/03/24 07:15:26;;;;;;;19.25;3.70;;;9.50;99.90;;;;;;4973150;28;20042;-82
2023/03/24 07:18:02;;;;;;;25.90;4.35;;;9.50;99.90;;;;;;4973845;28;20082;-82
2023/03/24 07:20:27;;;;;;;18.48;4.03;;;9.50;99.90;;;;;;4970766;28;20054;-84
2023/03/24 07:22:57;;;;;;;;;;;9.50;99.90;;;;;;4972657;28;20129;-84
2023/03/24 07:25:23;;;;;;;15.45;4.10;;;9.60;99.90;;;;;;4957631;28;19918;-86
2023/03/24 07:27:54;;;;;;;16.65;4.53;;;9.60;99.90;;;;;;4957367;28;20066;-86
2023/03/24 07:30:20;;;;;;;16.42;3.58;;;9.60;99.90;;;;;;4967784;28;20098;-87
2023/03/24 07:32:48;;;;;;;22.60;3.55;;;9.90;99.90;;;;;;4956356;28;20378;-78
2023/03/24 07:35:15;;;;;;;18.60;3.72;;;10.00;99.90;;;;;;4978252;28;20047;-77
2023/03/24 07:37:41;;;;;;;16.33;4.00;;;9.90;99.90;;;;;;4959230;28;20053;-79
2023/03/24 07:40:10;;;;;;;20.60;3.60;;;9.60;99.90;;;;;;4978371;28;20042;-83
2023/03/24 07:43:00;;;;;;;19.02;3.67;;;10.00;99.90;;;;;;4954777;28;20066;-84
2023/03/24 07:45:27;;;;;;;18.45;3.58;;;10.80;99.90;;;;;;4969867;28;20134;-79
2023/03/24 07:47:53;;;;;;;17.52;3.72;;;11.60;99.90;;;;;;4955717;28;20502;-82
2023/03/24 07:50:22;;;;;;;18.58;3.53;;;12.10;99.90;;;;;;4956325;28;20438;-80
2023/03/24 07:52:48;;;;;;;14.52;3.30;;;12.60;99.90;;;;;;4961671;28;20240;-82
2023/03/24 07:55:20;;;;;;;12.95;3.42;;;13.10;99.90;;;;;;4988263;28;20042;-79
2023/03/24 07:57:49;;;;;;;20.38;3.40;;;13.30;99.90;;;;;;4968578;28;20039;-82
2023/03/24 08:00:16;;;;;;;16.75;3.25;;;13.70;99.90;;;;;;4984103;28;20047;-86
2023/03/24 08:02:44;;;;;;;17.20;3.25;;;14.20;99.90;;;;;;4955924;28;20058;-81
2023/03/24 08:05:13;;;;;;;21.65;4.05;;;14.30;99.90;;;;;;4976059;28;20061;-76
2023/03/24 08:07:43;;;;;;;21.33;3.65;;;14.30;99.90;;;;;;4954927;28;20043;-82
2023/03/24 08:10:11;;;;;;;17.90;3.35;;;14.80;99.90;;;;;;4956086;28;20053;-88
2023/03/24 08:12:37;;;;;;;16.48;3.58;;;14.90;99.90;;;;;;4955042;28;20101;-86
2023/03/24 08:15:04;;;;;;;15.88;3.60;;;14.90;99.90;;;;;;4954764;28;20046;-76
2023/03/24 08:17:31;;;;;;;17.65;4.10;;;15.40;99.90;;;;;;4984084;28;20051;-76
2023/03/24 08:19:57;;;;;;;18.08;4.35;;;15.60;99.90;;;;;;4991397;28;20104;-81
2023/03/24 08:22:22;;;;;;;19.38;4.30;;;15.60;99.90;;;;;;4963477;28;20046;-79
2023/03/24 08:24:48;;;;;;;23.08;4.70;;;15.50;99.90;;;;;;4975861;28;20066;-78
2023/03/24 08:27:15;;;;;;;16.38;3.70;;;15.50;99.90;;;;;;4961342;28;20454;-77
2023/03/24 08:29:44;;;;;;;19.67;3.83;;;15.30;99.90;;;;;;4969737;28;20059;-85
2023/03/24 08:32:15;;;;;;;16.30;3.42;;;15.50;99.90;;;;;;4947402;28;20043;-80
2023/03/24 08:34:54;;;;;;;13.57;3.10;;;15.70;99.90;;;;;;4981067;28;20058;-78
2023/03/24 08:38:10;;;;;;;18.05;4.20;;;15.80;99.90;;;;;;4988157;28;20046;-78
2023/03/24 08:40:49;;;;;;;18.88;4.10;;;16.10;99.90;;;;;;4920115;29;20060;-75
2023/03/24 08:43:18;;;;;;;15.68;3.45;;;16.00;99.90;;;;;;4939803;29;20193;-74
2023/03/24 08:45:44;;;;;;;14.15;3.08;;;15.90;99.90;;;;;;4955454;28;20054;-76
2023/03/24 08:48:25;;;;;;;16.73;3.15;;;16.20;99.90;;;;;;4983777;28;20122;-74
2023/03/24 08:50:59;;;;;;;21.17;4.22;;;15.40;99.90;;;;;;4960839;28;20065;-74
2023/03/24 08:53:25;;;;;;;18.48;3.67;;;16.10;99.90;;;;;;4984066;28;20610;-74
2023/03/24 08:55:54;;;;;;;15.52;3.65;;;16.30;99.90;;;;;;4979053;28;20043;-75
2023/03/24 08:58:20;;;;;;;15.10;3.05;;;16.40;99.90;;;;;;4984909;28;20054;-75
2023/03/24 09:00:47;;;;;;;14.45;3.47;;;17.20;99.90;;;;;;4973413;28;20050;-75
2023/03/24 09:03:17;;;;;;;14.10;3.15;;;16.80;99.90;;;;;;4973738;28;20057;-74
2023/03/24 09:05:44;;;;;;;16.13;3.05;;;16.90;99.90;;;;;;4978032;28;20035;-75
2023/03/24 09:08:14;;;;;;;9.68;2.63;;;17.20;99.90;;;;;;4975954;28;20050;-76
2023/03/24 09:10:41;;;;;;;12.20;2.78;;;17.10;99.90;;;;;;4974675;28;20050;-75
2023/03/24 09:13:07;;;;;;;15.98;3.15;;;17.30;99.90;;;;;;4993283;28;20055;-75
2023/03/24 09:15:33;;;;;;;14.68;3.42;;;17.40;99.90;;;;;;4956130;28;20137;-75
2023/03/24 09:17:59;;;;;;;14.55;3.78;;;17.70;99.90;;;;;;4955564;28;20055;-75
2023/03/24 09:20:26;;;;;;;9.32;2.95;;;18.30;99.90;;;;;;4973191;28;20051;-74
2023/03/24 09:22:51;;;;;;;12.30;2.97;;;18.30;99.60;;;;;;4955952;28;20051;-75
2023/03/24 09:25:19;;;;;;;12.77;2.97;;;17.90;99.90;;;;;;4984210;28;20065;-75
2023/03/24 09:27:46;;;;;;;16.33;2.92;;;17.70;99.90;;;;;;4955126;28;20066;-75
2023/03/24 09:30:17;;;;;;;12.77;2.92;;;17.60;99.90;;;;;;4949143;28;20058;-75
2023/03/24 09:32:44;;;;;;;14.35;3.20;;;18.00;99.60;;;;;;4978906;28;20089;-76
2023/03/24 09:35:10;;;;;;;11.65;2.70;;;17.80;99.90;;;;;;4982396;28;20042;-75
2023/03/24 09:37:38;;;;;;;15.05;3.28;;;17.80;99.40;;;;;;4980403;28;20042;-74
2023/03/24 09:40:06;;;;;;;18.73;3.08;;;18.10;99.90;;;;;;4958766;28;20123;-76
2023/03/24 09:42:39;;;;;;;13.00;2.85;;;18.40;99.30;;;;;;4976742;28;20554;-75
2023/03/24 09:45:14;;;;;;;12.02;2.67;;;18.40;99.00;;;;;;4984445;28;20058;-76
2023/03/24 09:47:53;;;;;;;16.15;3.63;;;18.30;99.70;;;;;;4958504;28;20062;-76
2023/03/24 09:50:34;;;;;;;9.95;2.88;;;18.60;99.00;;;;;;4976438;28;20058;-74
2023/03/24 09:53:35;;;;;;;13.95;3.17;;;18.50;98.00;;;;;;4975329;28;20086;-74
2023/03/24 09:56:10;;;;;;;12.30;3.15;;;18.50;98.80;;;;;;4952318;28;20439;-73
2023/03/24 09:58:40;;;;;;;13.55;3.03;;;17.80;98.40;;;;;;4958793;28;20046;-73
2023/03/24 10:01:11;;;;;;;12.98;2.97;;;18.30;99.70;;;;;;4958379;28;20491;-73
2023/03/24 10:03:36;;;;;;;15.57;3.28;;;19.10;98.50;;;;;;4959272;28;20093;-74
2023/03/24 10:06:37;;;;;;;13.27;3.13;;;19.10;98.80;;;;;;4959293;28;20078;-75
2023/03/24 10:09:23;;;;;;;12.13;3.25;;;19.00;98.00;;;;;;4974406;28;20502;-74
2023/03/24 10:12:10;;;;;;;14.93;2.80;;;19.20;97.30;;;;;;4957504;29;20055;-75
2023/03/24 10:14:51;;;;;;;14.02;2.90;;;19.00;96.90;;;;;;4967998;28;20042;-74
2023/03/24 10:17:26;;;;;;;10.63;2.90;;;19.20;97.00;;;;;;4971772;28;20042;-74
2023/03/24 10:20:29;;;;;;;15.90;3.08;;;18.80;96.80;;;;;;4981754;28;20390;-75
2023/03/24 10:23:42;;;;;;;17.80;3.17;;;19.00;97.80;;;;;;4981144;28;20129;-74
2023/03/24 10:26:21;;;;;;;15.52;3.10;;;18.90;97.60;;;;;;4911707;28;20563;-75
2023/03/24 10:28:56;;;;;;;12.43;2.85;;;18.80;97.00;;;;;;4958324;28;20050;-75
2023/03/24 10:31:29;;;;;;;14.82;3.42;;;19.20;97.30;;;;;;4975130;28;20055;-75
2023/03/24 10:33:55;;;;;;;13.90;3.28;;;18.50;97.20;;;;;;4958505;28;20113;-74
2023/03/24 10:36:25;;;;;;;14.73;3.00;;;18.40;96.80;;;;;;4974816;28;20038;-74
2023/03/24 10:38:50;;;;;;;17.55;4.85;;;18.70;96.80;;;;;;4975896;28;20050;-74
2023/03/24 10:41:22;;;;;;;17.27;4.60;;;18.90;97.20;;;;;;4976104;28;20047;-74
2023/03/24 10:43:50;;;;;;;15.48;3.45;;;18.70;97.20;;;;;;4975088;28;20043;-75
2023/03/24 10:46:25;;;;;;;13.35;3.60;;;18.80;97.70;;;;;;4975472;28;20086;-75
2023/03/24 10:49:17;;;;;;;16.23;4.03;;;18.60;97.20;;;;;;4959013;28;20074;-75
2023/03/24 10:51:52;;;;;;;15.50;4.05;;;18.70;98.40;;;;;;4959075;28;20071;-75
2023/03/24 10:54:29;;;;;;;14.05;3.55;;;19.00;97.30;;;;;;4950282;28;20066;-75
2023/03/24 10:57:04;;;;;;;17.85;3.58;;;19.10;96.30;;;;;;4955960;28;20055;-75
2023/03/24 10:59:32;;;;;;;10.82;3.63;;;19.40;96.40;;;;;;4975465;28;20074;-75
2023/03/24 11:02:08;;;;;;;14.43;3.47;;;19.30;94.70;;;;;;4975201;28;20560;-75
2023/03/24 11:04:39;;;;;;;15.65;4.25;;;19.30;95.00;;;;;;4974636;28;20086;-75
2023/03/24 11:07:20;;;;;;;15.05;4.05;;;19.60;96.70;;;;;;4957198;28;20431;-74
2023/03/24 11:10:17;;;;;;;17.98;4.70;;;19.60;96.60;;;;;;4975545;28;20473;-75
2023/03/24 11:12:57;;;;;;;18.25;3.45;;;20.00;96.10;;;;;;4969252;28;20089;-73
2023/03/24 11:15:28;;;;;;;12.90;2.92;;;19.90;96.10;;;;;;4949492;28;20059;-73
2023/03/24 11:18:00;;;;;;;12.57;3.05;;;19.20;95.50;;;;;;4958042;28;20121;-75
2023/03/24 11:20:44;;;;;;;16.17;2.90;;;19.10;96.50;;;;;;4974952;28;20042;-74
2023/03/24 11:23:18;;;;;;;16.00;3.28;;;19.60;96.70;;;;;;4975107;28;20141;-75
2023/03/24 11:25:51;;;;;;;14.55;2.58;;;20.00;96.20;;;;;;4974276;28;20554;-74
2023/03/24 11:28:25;;;;;;;14.77;2.90;;;20.30;94.30;;;;;;4957810;28;20142;-75
2023/03/24 11:30:52;;;;;;;11.10;2.28;;;19.80;95.70;;;;;;4956888;28;20176;-75
2023/03/24 11:33:32;;;;;;;12.82;3.13;;;20.10;94.40;;;;;;4987376;28;20058;-73
2023/03/24 11:36:00;;;;;;;17.00;6.30;;;19.70;95.20;;;;;;4980816;28;20296;-74
2023/03/24 11:38:31;;;;;;;10.63;2.50;;;19.90;95.40;;;;;;4960591;28;20074;-74
2023/03/24 11:41:01;;;;;;;11.80;2.38;;;20.00;95.40;;;;;;4974817;28;20051;-75
2023/03/24 11:43:27;;;;;;;16.73;2.70;;;20.00;94.50;;;;;;4957462;28;20045;-73
2023/03/24 11:46:25;;;;;;;10.43;2.50;;;19.80;95.30;;;;;;4974130;28;20121;-75
2023/03/24 11:48:56;;;;;;;15.57;2.70;;;19.10;94.70;;;;;;4978200;28;20053;-73
2023/03/24 11:51:45;;;;;;;13.30;2.63;;;18.10;96.40;;;;;;4988127;28;20039;-76
2023/03/24 11:54:49;;;;;;;12.10;2.77;;;17.50;96.40;;;;;;4973639;28;20062;-75
2023/03/24 11:57:20;;;;;;;;;;;17.90;96.80;;;;;;4969983;28;20050;-76
2023/03/24 11:59:57;;;;;;;11.82;2.70;;;18.00;97.70;;;;;;4973241;28;20468;-73
2023/03/24 12:02:45;;;;;;;12.75;2.38;;;18.60;97.50;;;;;;4956246;28;20506;-72
2023/03/24 12:05:27;;;;;;;7.57;1.95;;;18.80;96.00;;;;;;4974021;28;20519;-71
2023/03/24 12:08:10;;;;;;;13.05;2.90;;;18.50;95.10;;;;;;4955643;28;20130;-75
2023/03/24 12:11:09;;;;;;;11.38;2.05;;;18.00;95.70;;;;;;4968529;28;20070;-76
2023/03/24 12:13:38;;;;;;;12.50;2.40;;;17.10;96.80;;;;;;4992884;28;20915;-78
2023/03/24 12:16:07;;;;;;;9.43;2.50;;;16.70;97.40;;;;;;4976478;28;20050;-76
2023/03/24 12:18:56;;;;;;;12.57;2.78;;;17.10;97.90;;;;;;4993155;28;20042;-75
2023/03/24 12:21:53;;;;;;;10.10;2.38;;;17.10;98.20;;;;;;4975027;28;20046;-75
2023/03/24 12:24:21;;;;;;;7.77;1.97;;;17.30;96.90;;;;;;4956680;28;20062;-78
2023/03/24 12:26:56;;;;;;;13.05;2.40;;;17.50;96.40;;;;;;4973912;28;20602;-78
2023/03/24 12:29:41;;;;;;;15.38;2.80;;;17.10;97.80;;;;;;4955613;28;20185;-76
2023/03/24 12:32:41;;;;;;;15.05;2.40;;;16.90;97.20;;;;;;4956746;28;20074;-77
2023/03/24 12:35:08;;;;;;;18.98;2.78;;;17.00;98.10;;;;;;4956741;28;20109;-77
2023/03/24 12:37:54;;;;;;;10.45;2.55;;;17.20;98.60;;;;;;4973662;28;20043;-77
2023/03/24 12:41:23;;;;;;;12.93;2.33;;;17.70;98.10;;;;;;4968344;28;20061;-76
2023/03/24 12:44:20;;;;;;;8.27;2.15;;;17.40;96.80;;;;;;4960033;28;20499;-74
2023/03/24 12:47:31;;;;;;;12.67;2.00;;;16.60;97.60;;;;;;4961542;28;20046;-74
2023/03/24 12:50:26;;;;;;;9.88;2.00;;;16.00;97.50;;;;;;4974131;28;20070;-76
2023/03/24 12:53:15;;;;;;;11.87;2.60;;;15.80;98.50;;;;;;4956052;28;20039;-79
2023/03/24 12:56:16;;;;;;;11.40;2.33;;;16.40;98.90;;;;;;4973014;28;20434;-77
2023/03/24 12:58:56;;;;;;;10.23;1.83;;;16.50;98.80;;;;;;4972525;28;20062;-80
2023/03/24 13:01:38;;;;;;;12.95;2.90;;;16.70;98.40;;;;;;4981337;28;20549;-79
2023/03/24 13:04:29;;;;;;;7.82;1.98;;;16.40;98.00;;;;;;4970491;28;20117;-78
2023/03/24 13:07:19;;;;;;;11.25;2.60;;;16.60;97.50;;;;;;4956012;28;20521;-77
2023/03/24 13:10:01;;;;;;;13.60;2.80;;;16.70;97.90;;;;;;4955717;28;20042;-78
2023/03/24 13:12:54;;;;;;;14.65;3.05;;;16.60;98.00;;;;;;4959257;28;20397;-76
2023/03/24 13:15:30;;;;;;;11.52;3.03;;;16.40;98.20;;;;;;4958744;28;20137;-76
2023/03/24 13:18:12;;;;;;;9.93;2.47;;;15.90;99.30;;;;;;4983797;28;20569;-76
2023/03/24 13:21:18;;;;;;;10.18;2.70;;;15.50;99.90;;;;;;4967945;28;20054;-77